createdAt,value
2022-11-24T00:01:07.262Z,4.60
2022-11-24T00:03:35.825Z,3.78
2022-11-24T00:06:05.530Z,4.70
2022-11-24T00:08:35.242Z,4.30
2022-11-24T00:11:07.140Z,4.00
2022-11-24T00:13:35.897Z,4.00
2022-11-24T00:16:08.491Z,4.75
2022-11-24T00:18:36.948Z,4.22
2022-11-24T00:21:05.317Z,4.70
2022-11-24T00:23:35.473Z,4.47
2022-11-24T00:26:07.932Z,4.45
2022-11-24T00:28:37.026Z,4.30
2022-11-24T00:31:05.886Z,3.88
2022-11-24T00:33:34.308Z,4.18
2022-11-24T00:36:02.830Z,4.38
2022-11-24T00:38:31.145Z,4.78
2022-11-24T00:41:00.904Z,4.13
2022-11-24T00:43:29.259Z,4.03
2022-11-24T00:45:57.717Z,4.25
2022-11-24T00:48:26.231Z,4.05
2022-11-24T00:50:58.815Z,4.53
2022-11-24T00:53:27.258Z,4.10
2022-11-24T00:55:55.749Z,3.88
2022-11-24T00:58:25.741Z,3.42
2022-11-24T01:00:54.510Z,4.47
2022-11-24T01:03:23.192Z,3.72
2022-11-24T01:05:51.615Z,4.00
2022-11-24T01:08:19.945Z,3.88
2022-11-24T01:10:48.277Z,3.13
2022-11-24T01:13:16.663Z,3.90
2022-11-24T01:15:46.405Z,4.25
2022-11-24T01:18:14.743Z,4.22
2022-11-24T01:20:43.082Z,3.97
2022-11-24T01:23:11.413Z,4.75
2022-11-24T01:25:41.515Z,3.75
2022-11-24T01:28:09.856Z,4.30
2022-11-24T01:30:38.246Z,3.38
2022-11-24T01:33:07.975Z,3.75
2022-11-24T01:35:36.372Z,3.47
2022-11-24T01:38:04.721Z,3.42
2022-11-24T01:40:33.065Z,3.40
2022-11-24T01:43:01.379Z,3.70
2022-11-24T01:45:33.398Z,3.47
2022-11-24T01:48:03.285Z,3.50
2022-11-24T01:50:33.788Z,3.58
2022-11-24T01:53:02.239Z,3.72
2022-11-24T01:55:32.793Z,3.05
2022-11-24T01:58:05.978Z,3.88
2022-11-24T02:00:35.002Z,2.53
2022-11-24T02:03:03.515Z,3.72
2022-11-24T02:05:36.840Z,3.15
2022-11-24T02:08:09.928Z,3.13
2022-11-24T02:10:38.852Z,3.53
2022-11-24T02:13:07.222Z,3.65
2022-11-24T02:15:36.413Z,3.38
2022-11-24T02:18:04.920Z,3.53
2022-11-24T02:20:35.177Z,4.20
2022-11-24T02:23:04.827Z,3.38
2022-11-24T02:25:36.356Z,4.35
2022-11-24T02:28:08.481Z,3.35
2022-11-24T02:30:37.167Z,3.80
2022-11-24T02:33:05.638Z,3.85
2022-11-24T02:35:34.140Z,3.85
2022-11-24T02:38:02.501Z,3.47
2022-11-24T02:40:31.105Z,4.28
2022-11-24T02:43:00.605Z,4.07
2022-11-24T02:45:31.432Z,3.88
2022-11-24T02:47:59.851Z,3.92
2022-11-24T02:50:28.238Z,3.50
2022-11-24T02:52:56.558Z,4.32
2022-11-24T02:55:24.908Z,3.38
2022-11-24T02:57:53.236Z,3.65
2022-11-24T03:00:21.797Z,4.10
2022-11-24T03:02:51.643Z,4.65
2022-11-24T03:05:20.101Z,3.63
2022-11-24T03:07:48.466Z,3.50
2022-11-24T03:10:17.135Z,4.03
2022-11-24T03:12:45.463Z,4.32
2022-11-24T03:15:13.907Z,3.95
2022-11-24T03:17:42.215Z,3.90
2022-11-24T03:20:13.173Z,3.95
2022-11-24T03:22:41.643Z,4.15
2022-11-24T03:25:10.324Z,3.65
2022-11-24T03:27:38.627Z,4.70
2022-11-24T03:30:07.574Z,3.67
2022-11-24T03:32:35.952Z,4.10
2022-11-24T03:35:04.345Z,3.65
2022-11-24T03:37:34.348Z,3.70
2022-11-24T03:40:03.041Z,4.68
2022-11-24T03:42:31.430Z,3.78
2022-11-24T03:45:11.780Z,3.40
2022-11-24T03:47:51.551Z,4.07
2022-11-24T03:50:20.026Z,4.18
2022-11-24T03:52:49.706Z,3.88
2022-11-24T03:55:18.171Z,4.18
2022-11-24T03:57:46.506Z,3.70
2022-11-24T04:00:15.209Z,4.07
2022-11-24T04:02:43.573Z,3.72
2022-11-24T04:05:12.078Z,4.05
2022-11-24T04:07:40.481Z,4.00
2022-11-24T04:10:10.815Z,4.03
2022-11-24T04:12:44.302Z,4.00
2022-11-24T04:15:12.980Z,4.45
2022-11-24T04:17:41.378Z,3.72
2022-11-24T04:20:10.425Z,3.90
2022-11-24T04:22:38.817Z,3.90
2022-11-24T04:25:07.865Z,4.38
2022-11-24T04:27:38.327Z,4.85
2022-11-24T04:30:07.569Z,4.32
2022-11-24T04:32:35.921Z,5.07
2022-11-24T04:35:04.366Z,4.40
2022-11-24T04:37:32.756Z,4.55
2022-11-24T04:40:01.095Z,3.78
2022-11-24T04:42:29.464Z,4.00
2022-11-24T04:44:59.186Z,4.55
2022-11-24T04:47:28.110Z,4.43
2022-11-24T04:49:56.678Z,3.40
2022-11-24T04:52:25.588Z,3.47
2022-11-24T04:54:54.224Z,3.55
2022-11-24T04:57:23.523Z,3.83
2022-11-24T04:59:52.644Z,3.53
2022-11-24T05:02:23.002Z,4.95
2022-11-24T05:04:51.444Z,4.18
2022-11-24T05:07:20.510Z,3.88
2022-11-24T05:10:06.898Z,4.80
2022-11-24T05:12:35.389Z,4.03
2022-11-24T05:15:04.291Z,3.42
2022-11-24T05:17:34.736Z,3.90
2022-11-24T05:20:03.793Z,4.40
2022-11-24T05:22:32.714Z,3.95
2022-11-24T05:25:01.795Z,5.80
2022-11-24T05:27:30.127Z,4.20
2022-11-24T05:29:58.530Z,3.53
2022-11-24T05:32:26.885Z,4.38
2022-11-24T05:34:56.840Z,4.07
2022-11-24T05:37:25.641Z,4.00
2022-11-24T05:39:54.639Z,4.38
2022-11-24T05:42:46.666Z,4.00
2022-11-24T05:45:17.313Z,4.38
2022-11-24T05:47:45.713Z,5.15
2022-11-24T05:50:16.199Z,4.78
2022-11-24T05:52:44.761Z,4.30
2022-11-24T05:55:14.657Z,4.47
2022-11-24T05:57:43.263Z,3.97
2022-11-24T06:00:13.272Z,4.05
2022-11-24T06:02:41.792Z,4.28
2022-11-24T06:05:10.455Z,4.57
2022-11-24T06:07:40.241Z,3.95
2022-11-24T06:10:08.915Z,4.43
2022-11-24T06:12:37.728Z,4.30
2022-11-24T06:15:06.475Z,4.55
2022-11-24T06:17:34.816Z,4.28
2022-11-24T06:20:03.324Z,3.53
2022-11-24T06:22:31.632Z,4.68
2022-11-24T06:25:01.485Z,3.90
2022-11-24T06:27:29.857Z,4.25
2022-11-24T06:29:58.216Z,4.07
2022-11-24T06:32:26.538Z,3.88
2022-11-24T06:34:54.873Z,3.78
2022-11-24T06:37:23.210Z,4.65
2022-11-24T06:39:51.538Z,4.15
2022-11-24T06:42:21.634Z,4.28
2022-11-24T06:44:49.961Z,3.63
2022-11-24T06:47:18.430Z,3.97
2022-11-24T06:49:46.839Z,4.82
2022-11-24T06:52:15.184Z,4.20
2022-11-24T06:54:43.553Z,3.83
2022-11-24T06:57:11.899Z,3.78
2022-11-24T06:59:41.619Z,4.00
2022-11-24T07:02:10.785Z,3.78
2022-11-24T07:04:39.100Z,3.65
2022-11-24T07:07:07.538Z,3.92
2022-11-24T07:09:35.906Z,4.07
2022-11-24T07:12:05.975Z,3.67
2022-11-24T07:14:34.602Z,3.33
2022-11-24T07:17:04.847Z,3.10
2022-11-24T07:19:33.168Z,3.35
2022-11-24T07:22:01.529Z,3.13
2022-11-24T07:24:29.829Z,2.90
2022-11-24T07:26:58.212Z,4.00
2022-11-24T07:29:26.547Z,3.47
2022-11-24T07:31:54.937Z,3.13
2022-11-24T07:34:24.635Z,2.80
2022-11-24T07:36:53.047Z,2.72
2022-11-24T07:39:21.390Z,2.70
2022-11-24T07:41:49.745Z,2.70
2022-11-24T07:44:18.065Z,2.90
2022-11-24T07:46:46.467Z,2.78
2022-11-24T07:49:14.807Z,2.90
2022-11-24T07:51:44.536Z,2.50
2022-11-24T07:54:12.900Z,2.20
2022-11-24T07:56:41.254Z,2.67
2022-11-24T07:59:09.578Z,1.83
2022-11-24T08:01:38.014Z,2.10
2022-11-24T08:04:06.668Z,1.90
2022-11-24T08:06:39.712Z,2.10
2022-11-24T08:09:11.716Z,1.98
2022-11-24T08:11:40.120Z,2.05
2022-11-24T08:14:08.589Z,1.90
2022-11-24T08:16:36.984Z,1.58
2022-11-24T08:19:05.348Z,1.80
2022-11-24T08:21:33.739Z,1.48
2022-11-24T08:24:02.090Z,1.65
2022-11-24T08:26:31.823Z,2.70
2022-11-24T08:29:00.838Z,1.55
2022-11-24T08:31:34.023Z,1.23
2022-11-24T08:34:02.862Z,1.58
2022-11-24T08:36:31.437Z,1.55
2022-11-24T08:39:00.634Z,1.70
2022-11-24T08:41:29.312Z,1.75
2022-11-24T08:43:59.217Z,1.60
2022-11-24T08:46:27.688Z,1.63
2022-11-24T08:48:56.642Z,2.30
2022-11-24T08:51:25.958Z,1.90
2022-11-24T08:53:56.047Z,2.13
2022-11-24T08:56:24.424Z,1.98
2022-11-24T08:58:52.823Z,1.77
2022-11-24T09:01:22.670Z,2.60
2022-11-24T09:03:51.745Z,2.65
2022-11-24T09:06:22.899Z,2.00
2022-11-24T09:08:51.481Z,2.13
2022-11-24T09:11:20.190Z,2.33
2022-11-24T09:13:48.524Z,2.65
2022-11-24T09:16:18.345Z,2.17
2022-11-24T09:18:48.552Z,2.28
2022-11-24T09:21:18.303Z,2.45
2022-11-24T09:23:47.329Z,2.13
2022-11-24T09:26:16.517Z,2.42
2022-11-24T09:28:45.808Z,2.65
2022-11-24T09:31:15.576Z,2.60
2022-11-24T09:33:44.203Z,2.63
2022-11-24T09:36:14.194Z,2.40
2022-11-24T09:38:42.822Z,2.38
2022-11-24T09:41:23.215Z,2.67
2022-11-24T09:43:58.452Z,2.42
2022-11-24T09:46:29.862Z,2.75
2022-11-24T09:48:59.261Z,2.92
2022-11-24T09:51:29.995Z,2.63
2022-11-24T09:53:59.915Z,2.97
2022-11-24T09:56:29.947Z,2.90
2022-11-24T09:59:01.169Z,2.78
2022-11-24T10:01:31.645Z,3.33
2022-11-24T10:04:05.937Z,2.80
2022-11-24T10:06:40.103Z,3.40
2022-11-24T10:09:11.924Z,3.05
2022-11-24T10:11:41.534Z,2.65
2022-11-24T10:14:19.123Z,2.83
2022-11-24T10:16:52.715Z,2.55
2022-11-24T10:19:36.398Z,2.80
2022-11-24T10:22:11.063Z,2.72
2022-11-24T10:24:51.678Z,3.30
2022-11-24T10:27:20.842Z,3.00
2022-11-24T10:29:51.113Z,2.75
2022-11-24T10:32:20.464Z,3.00
2022-11-24T10:34:50.514Z,3.05
2022-11-24T10:37:23.154Z,3.13
2022-11-24T10:39:59.714Z,3.20
2022-11-24T10:42:29.711Z,3.03
2022-11-24T10:45:02.286Z,3.15
2022-11-24T10:47:31.178Z,3.35
2022-11-24T10:50:01.594Z,3.15
2022-11-24T10:52:33.468Z,2.75
2022-11-24T10:55:02.594Z,2.83
2022-11-24T10:57:32.609Z,3.33
2022-11-24T11:00:01.595Z,3.22
2022-11-24T11:02:34.745Z,2.67
2022-11-24T11:05:18.045Z,3.47
2022-11-24T11:07:48.167Z,2.80
2022-11-24T11:10:20.889Z,3.05
2022-11-24T11:12:49.677Z,2.53
2022-11-24T11:15:23.219Z,3.33
2022-11-24T11:17:57.310Z,3.10
2022-11-24T11:20:29.118Z,3.20
2022-11-24T11:23:00.032Z,3.13
2022-11-24T11:25:31.508Z,4.18
2022-11-24T11:28:17.791Z,3.08
2022-11-24T11:31:16.583Z,2.97
2022-11-24T11:34:04.735Z,2.95
2022-11-24T11:36:34.831Z,2.60
2022-11-24T11:39:05.751Z,3.17
2022-11-24T11:41:35.226Z,2.83
2022-11-24T11:44:17.129Z,3.33
2022-11-24T11:46:45.688Z,3.03
2022-11-24T11:49:14.659Z,2.95
2022-11-24T11:51:55.401Z,3.28
2022-11-24T11:54:32.462Z,3.00
2022-11-24T11:57:04.528Z,3.67
2022-11-24T11:59:47.728Z,4.15
2022-11-24T12:02:33.845Z,2.83
2022-11-24T12:05:04.166Z,2.95
2022-11-24T12:07:50.331Z,2.78
2022-11-24T12:10:24.206Z,3.20
2022-11-24T12:13:00.314Z,3.72
2022-11-24T12:15:32.484Z,3.13
2022-11-24T12:18:05.647Z,2.63
2022-11-24T12:20:42.429Z,3.45
2022-11-24T12:23:18.995Z,3.28
2022-11-24T12:25:51.320Z,3.63
2022-11-24T12:28:25.792Z,3.30
2022-11-24T12:31:00.154Z,3.22
2022-11-24T12:33:38.241Z,3.38
2022-11-24T12:36:12.221Z,3.53
2022-11-24T12:38:47.604Z,3.03
2022-11-24T12:41:41.681Z,4.25
2022-11-24T12:44:16.955Z,3.03
2022-11-24T12:46:50.906Z,3.00
2022-11-24T12:49:23.898Z,3.33
2022-11-24T12:51:55.454Z,3.05
2022-11-24T12:54:24.879Z,3.28
2022-11-24T12:56:55.697Z,3.03
2022-11-24T12:59:32.788Z,3.05
2022-11-24T13:02:06.682Z,3.83
2022-11-24T13:04:39.948Z,2.90
2022-11-24T13:07:12.363Z,3.42
2022-11-24T13:10:01.415Z,3.17
2022-11-24T13:12:29.884Z,2.90
2022-11-24T13:14:59.988Z,2.95
2022-11-24T13:17:42.044Z,3.80
2022-11-24T13:20:25.371Z,4.18
2022-11-24T13:22:54.607Z,4.75
2022-11-24T13:25:23.855Z,4.65
2022-11-24T13:27:53.898Z,3.63
2022-11-24T13:30:53.182Z,3.40
2022-11-24T13:33:36.200Z,3.20
2022-11-24T13:36:31.704Z,3.28
2022-11-24T13:39:00.556Z,3.10
2022-11-24T13:41:47.400Z,3.60
2022-11-24T13:44:21.481Z,3.80
2022-11-24T13:47:05.289Z,3.63
2022-11-24T13:49:41.862Z,3.40
2022-11-24T13:52:28.894Z,3.00
2022-11-24T13:54:58.066Z,3.40
2022-11-24T13:57:36.080Z,3.78
2022-11-24T14:00:05.535Z,3.50
2022-11-24T14:02:34.771Z,2.72
2022-11-24T14:05:04.788Z,3.67
2022-11-24T14:07:33.755Z,3.17
2022-11-24T14:10:03.500Z,2.85
2022-11-24T14:12:34.164Z,2.80
2022-11-24T14:15:21.748Z,3.17
2022-11-24T14:17:50.459Z,2.97
2022-11-24T14:20:24.438Z,3.20
2022-11-24T14:22:53.088Z,3.55
2022-11-24T14:25:23.121Z,2.95
2022-11-24T14:27:51.819Z,3.00
2022-11-24T14:30:21.592Z,3.67
2022-11-24T14:32:56.926Z,3.03
2022-11-24T14:35:28.018Z,3.00
2022-11-24T14:37:56.512Z,3.10
2022-11-24T14:40:44.539Z,3.10
2022-11-24T14:43:18.918Z,3.17
2022-11-24T14:45:51.165Z,3.03
2022-11-24T14:48:20.331Z,2.50
2022-11-24T14:50:50.081Z,2.50
2022-11-24T14:53:25.815Z,2.97
2022-11-24T14:56:10.933Z,2.63
2022-11-24T14:58:42.466Z,3.30
2022-11-24T15:01:21.445Z,3.10
2022-11-24T15:04:17.922Z,3.33
2022-11-24T15:07:07.282Z,2.47
2022-11-24T15:09:39.725Z,2.97
2022-11-24T15:12:09.556Z,3.92
2022-11-24T15:14:51.356Z,3.33
2022-11-24T15:17:20.567Z,3.38
2022-11-24T15:19:50.971Z,3.20
2022-11-24T15:22:34.225Z,2.83
2022-11-24T15:25:02.744Z,3.10
2022-11-24T15:27:31.113Z,2.92
2022-11-24T15:29:59.468Z,3.25
2022-11-24T15:32:27.849Z,3.05
2022-11-24T15:34:56.170Z,3.15
2022-11-24T15:37:24.583Z,3.17
2022-11-24T15:39:54.302Z,3.47
2022-11-24T15:42:22.689Z,3.33
2022-11-24T15:44:51.013Z,3.20
2022-11-24T15:47:19.585Z,3.70
2022-11-24T15:49:47.916Z,3.60
2022-11-24T15:52:18.427Z,2.97
2022-11-24T15:54:46.760Z,3.17
2022-11-24T15:57:16.495Z,3.22
2022-11-24T15:59:44.824Z,3.42
2022-11-24T16:02:13.224Z,3.80
2022-11-24T16:04:41.746Z,3.28
2022-11-24T16:07:11.863Z,3.50
2022-11-24T16:09:40.257Z,3.47
2022-11-24T16:12:09.699Z,3.60
2022-11-24T16:14:39.454Z,3.05
2022-11-24T16:17:07.977Z,2.97
2022-11-24T16:19:41.636Z,3.40
2022-11-24T16:22:10.445Z,3.95
2022-11-24T16:24:38.797Z,3.78
2022-11-24T16:27:07.185Z,3.65
2022-11-24T16:29:38.517Z,3.63
2022-11-24T16:32:08.645Z,5.13
2022-11-24T16:34:37.292Z,4.13
2022-11-24T16:37:05.850Z,4.10
2022-11-24T16:39:34.199Z,5.25
2022-11-24T16:42:02.544Z,4.43
2022-11-24T16:44:30.877Z,4.35
2022-11-24T16:46:59.293Z,4.25
2022-11-24T16:49:29.008Z,5.28
2022-11-24T16:51:57.402Z,5.57
2022-11-24T16:54:25.925Z,5.18
2022-11-24T16:56:54.290Z,5.63
2022-11-24T16:59:23.575Z,6.03
2022-11-24T17:01:52.104Z,6.68
2022-11-24T17:04:20.543Z,8.55
2022-11-24T17:06:50.310Z,11.68
2022-11-24T17:09:18.945Z,10.82
2022-11-24T17:11:47.392Z,11.68
2022-11-24T17:14:16.240Z,11.57
2022-11-24T17:16:44.712Z,9.27
2022-11-24T17:19:13.105Z,7.22
2022-11-24T17:21:41.449Z,7.90
2022-11-24T17:24:15.506Z,5.78
2022-11-24T17:26:48.762Z,7.22
2022-11-24T17:29:17.532Z,5.60
2022-11-24T17:31:46.112Z,5.28
2022-11-24T17:34:14.691Z,5.68
2022-11-24T17:36:45.910Z,4.68
2022-11-24T17:39:17.119Z,5.10
2022-11-24T17:41:48.744Z,4.65
2022-11-24T17:44:17.090Z,4.80
2022-11-24T17:46:45.483Z,4.43
2022-11-24T17:49:14.505Z,4.53
2022-11-24T17:51:42.932Z,4.13
2022-11-24T17:54:44.888Z,4.22
2022-11-24T17:57:01.075Z,4.13
2022-11-24T17:59:29.442Z,4.43
2022-11-24T18:01:57.820Z,3.80
2022-11-24T18:04:26.145Z,3.53
2022-11-24T18:06:54.513Z,3.70
2022-11-24T18:09:22.828Z,3.47
2022-11-24T18:11:52.118Z,3.90
2022-11-24T18:14:21.883Z,3.40
2022-11-24T18:16:50.293Z,3.50
2022-11-24T18:19:18.681Z,3.22
2022-11-24T18:21:47.060Z,3.58
2022-11-24T18:24:18.515Z,4.47
2022-11-24T18:26:51.665Z,3.85
2022-11-24T18:29:20.144Z,4.32
2022-11-24T18:31:49.951Z,3.80
2022-11-24T18:34:18.859Z,3.90
2022-11-24T18:36:50.568Z,3.88
2022-11-24T18:39:19.358Z,4.07
2022-11-24T18:41:47.894Z,4.38
2022-11-24T18:44:16.273Z,3.92
2022-11-24T18:46:44.743Z,3.53
2022-11-24T18:49:14.442Z,3.85
2022-11-24T18:51:42.801Z,3.55
2022-11-24T18:54:11.147Z,2.47
2022-11-24T18:56:39.626Z,3.38
2022-11-24T18:59:08.164Z,3.33
2022-11-24T19:01:37.667Z,3.20
2022-11-24T19:04:06.161Z,3.20
2022-11-24T19:06:36.988Z,4.20
2022-11-24T19:09:06.677Z,3.03
2022-11-24T19:11:35.901Z,3.35
2022-11-24T19:14:05.148Z,3.58
2022-11-24T19:16:33.802Z,3.28
2022-11-24T19:19:02.934Z,3.80
2022-11-24T19:21:32.121Z,3.67
2022-11-24T19:24:05.479Z,3.25
2022-11-24T19:26:35.920Z,3.10
2022-11-24T19:29:04.402Z,3.42
2022-11-24T19:31:32.996Z,3.95
2022-11-24T19:34:03.008Z,3.75
2022-11-24T19:36:31.636Z,3.20
2022-11-24T19:39:00.993Z,3.35
2022-11-24T19:41:32.183Z,3.20
2022-11-24T19:44:00.875Z,3.58
2022-11-24T19:46:30.420Z,3.17
2022-11-24T19:49:00.656Z,3.60
2022-11-24T19:51:31.276Z,3.22
2022-11-24T19:53:59.716Z,3.65
2022-11-24T19:56:28.948Z,3.58
2022-11-24T19:58:58.914Z,3.70
2022-11-24T20:01:28.228Z,3.83
2022-11-24T20:03:58.919Z,4.13
2022-11-24T20:06:28.128Z,3.83
2022-11-24T20:08:56.497Z,4.15
2022-11-24T20:11:25.075Z,4.68
2022-11-24T20:13:53.408Z,4.35
2022-11-24T20:16:26.472Z,4.28
2022-11-24T20:18:55.881Z,4.95
2022-11-24T20:21:25.282Z,4.68
2022-11-24T20:23:55.084Z,3.90
2022-11-24T20:26:24.367Z,3.88
2022-11-24T20:28:53.336Z,3.35
2022-11-24T20:31:24.343Z,3.75
2022-11-24T20:33:52.936Z,4.43
2022-11-24T20:36:22.419Z,3.83
2022-11-24T20:38:51.716Z,4.25
2022-11-24T20:41:21.197Z,3.60
2022-11-24T20:43:50.225Z,4.03
2022-11-24T20:46:19.494Z,3.90
2022-11-24T20:48:49.688Z,3.28
2022-11-24T20:51:18.869Z,3.85
2022-11-24T20:53:47.293Z,3.65
2022-11-24T20:56:16.959Z,3.20
2022-11-24T20:58:45.282Z,3.60
2022-11-24T21:01:14.927Z,3.72
2022-11-24T21:03:43.829Z,4.00
2022-11-24T21:06:13.779Z,3.90
2022-11-24T21:08:42.793Z,3.63
2022-11-24T21:11:12.188Z,3.60
2022-11-24T21:13:41.596Z,3.63
2022-11-24T21:16:14.065Z,3.30
2022-11-24T21:18:42.647Z,3.08
2022-11-24T21:21:11.031Z,3.03
2022-11-24T21:23:40.971Z,3.38
2022-11-24T21:26:15.058Z,4.40
2022-11-24T21:28:45.578Z,3.58
2022-11-24T21:31:15.572Z,3.60
2022-11-24T21:33:44.954Z,3.22
2022-11-24T21:36:14.647Z,3.03
2022-11-24T21:38:44.501Z,3.33
2022-11-24T21:41:14.456Z,3.70
2022-11-24T21:43:44.798Z,3.28
2022-11-24T21:46:13.632Z,3.40
2022-11-24T21:48:42.613Z,3.33
2022-11-24T21:51:13.262Z,3.95
2022-11-24T21:53:41.933Z,3.65
2022-11-24T21:56:13.035Z,3.40
2022-11-24T21:58:47.164Z,3.40
2022-11-24T22:01:16.291Z,3.15
2022-11-24T22:03:45.689Z,3.28
2022-11-24T22:06:14.248Z,3.42
2022-11-24T22:08:42.576Z,4.22
2022-11-24T22:11:13.954Z,3.25
2022-11-24T22:13:42.461Z,3.67
2022-11-24T22:16:12.694Z,3.60
2022-11-24T22:18:42.022Z,3.67
2022-11-24T22:21:12.749Z,3.25
2022-11-24T22:23:41.147Z,3.45
2022-11-24T22:26:10.786Z,3.75
2022-11-24T22:28:40.856Z,3.95
2022-11-24T22:31:10.157Z,3.20
2022-11-24T22:33:38.906Z,3.30
2022-11-24T22:36:07.803Z,3.08
2022-11-24T22:38:36.183Z,3.10
2022-11-24T22:41:05.262Z,3.17
2022-11-24T22:43:34.070Z,2.95
2022-11-24T22:46:07.721Z,3.10
2022-11-24T22:48:36.559Z,3.67
2022-11-24T22:51:05.683Z,3.10
2022-11-24T22:53:34.229Z,2.83
2022-11-24T22:56:03.505Z,3.25
2022-11-24T22:58:31.903Z,3.90
2022-11-24T23:01:04.984Z,3.60
2022-11-24T23:03:35.106Z,3.25
2022-11-24T23:06:03.927Z,4.18
2022-11-24T23:08:34.091Z,3.90
2022-11-24T23:11:02.808Z,3.35
2022-11-24T23:13:31.286Z,3.15
2022-11-24T23:16:03.463Z,3.25
2022-11-24T23:18:32.214Z,3.30
2022-11-24T23:21:07.314Z,3.33
2022-11-24T23:23:36.116Z,3.13
2022-11-24T23:26:05.148Z,2.92
2022-11-24T23:28:33.533Z,3.42
2022-11-24T23:31:02.859Z,3.80
2022-11-24T23:33:31.278Z,2.75
2022-11-24T23:36:02.230Z,3.35
2022-11-24T23:38:32.776Z,3.38
2022-11-24T23:41:02.367Z,2.50
2022-11-24T23:43:30.713Z,3.00
2022-11-24T23:46:03.920Z,2.88
2022-11-24T23:48:32.545Z,2.67
2022-11-24T23:51:04.969Z,2.92
2022-11-24T23:53:35.096Z,2.92
2022-11-24T23:56:03.998Z,3.45
2022-11-24T23:58:32.657Z,3.70
